createdAt,value
2022-09-26T00:00:44.775Z,11.93
2022-09-26T00:01:44.840Z,11.87
2022-09-26T00:02:44.845Z,11.79
2022-09-26T00:03:44.741Z,11.70
2022-09-26T00:04:44.824Z,11.77
2022-09-26T00:05:44.726Z,11.64
2022-09-26T00:06:44.810Z,11.67
2022-09-26T00:07:44.695Z,11.64
2022-09-26T00:08:44.687Z,11.57
2022-09-26T00:09:44.800Z,11.49
2022-09-26T00:10:44.660Z,11.51
2022-09-26T00:11:44.693Z,11.49
2022-09-26T00:12:44.669Z,11.46
2022-09-26T00:13:44.629Z,11.54
2022-09-26T00:14:44.634Z,11.44
2022-09-26T00:15:44.632Z,11.42
2022-09-26T00:16:44.729Z,11.42
2022-09-26T00:17:44.627Z,11.41
2022-09-26T00:18:44.585Z,11.38
2022-09-26T00:19:44.586Z,11.31
2022-09-26T00:20:44.563Z,11.31
2022-09-26T00:21:44.540Z,11.31
2022-09-26T00:22:44.534Z,11.28
2022-09-26T00:23:44.550Z,11.26
2022-09-26T00:24:44.546Z,11.27
2022-09-26T00:25:44.531Z,11.24
2022-09-26T00:26:44.508Z,11.35
2022-09-26T00:27:44.494Z,11.30
2022-09-26T00:28:44.477Z,11.26
2022-09-26T00:29:44.518Z,11.30
2022-09-26T00:30:44.521Z,11.36
2022-09-26T00:31:44.434Z,11.39
2022-09-26T00:32:44.422Z,11.35
2022-09-26T00:33:44.431Z,11.48
2022-09-26T00:34:44.419Z,11.42
2022-09-26T00:35:44.417Z,11.46
2022-09-26T00:36:44.505Z,11.63
2022-09-26T00:37:44.371Z,11.62
2022-09-26T00:38:44.556Z,11.56
2022-09-26T00:39:44.354Z,11.54
2022-09-26T00:40:44.435Z,11.57
2022-09-26T00:41:44.342Z,11.64
2022-09-26T00:42:44.341Z,11.62
2022-09-26T00:43:44.337Z,11.64
2022-09-26T00:44:44.306Z,11.67
2022-09-26T00:45:44.391Z,11.60
2022-09-26T00:46:44.298Z,11.66
2022-09-26T00:47:44.262Z,11.75
2022-09-26T00:48:44.328Z,11.77
2022-09-26T00:49:44.237Z,11.81
2022-09-26T00:50:44.228Z,11.75
2022-09-26T00:51:44.219Z,11.81
2022-09-26T00:52:44.207Z,11.77
2022-09-26T00:53:44.278Z,11.90
2022-09-26T00:54:44.225Z,11.88
2022-09-26T00:55:44.172Z,11.87
2022-09-26T00:56:44.181Z,11.82
2022-09-26T00:57:44.167Z,11.88
2022-09-26T00:58:44.168Z,11.93
2022-09-26T00:59:44.137Z,11.97
2022-09-26T01:00:44.180Z,11.96
2022-09-26T01:01:44.297Z,12.03
2022-09-26T01:02:44.151Z,11.94
2022-09-26T01:03:44.140Z,12.03
2022-09-26T01:04:44.087Z,12.11
2022-09-26T01:05:44.069Z,12.11
2022-09-26T01:06:44.121Z,12.08
2022-09-26T01:07:44.038Z,12.15
2022-09-26T01:08:44.056Z,12.07
2022-09-26T01:09:44.026Z,12.07
2022-09-26T01:10:44.011Z,12.05
2022-09-26T01:11:44.002Z,12.11
2022-09-26T01:12:44.029Z,12.15
2022-09-26T01:13:44.014Z,12.08
2022-09-26T01:14:43.981Z,12.12
2022-09-26T01:15:43.981Z,12.03
2022-09-26T01:16:44.100Z,12.08
2022-09-26T01:17:43.933Z,12.11
2022-09-26T01:18:43.976Z,12.12
2022-09-26T01:19:43.912Z,12.15
2022-09-26T01:20:43.902Z,12.13
2022-09-26T01:21:43.902Z,12.18
2022-09-26T01:22:43.888Z,12.18
2022-09-26T01:23:43.885Z,12.16
2022-09-26T01:24:43.894Z,12.16
2022-09-26T01:25:43.842Z,12.13
2022-09-26T01:26:43.832Z,12.25
2022-09-26T01:27:43.820Z,12.30
2022-09-26T01:28:43.833Z,12.26
2022-09-26T01:29:43.818Z,12.23
2022-09-26T01:30:43.882Z,12.29
2022-09-26T01:31:43.778Z,12.30
2022-09-26T01:32:43.771Z,12.33
2022-09-26T01:33:43.803Z,12.36
2022-09-26T01:34:43.778Z,12.25
2022-09-26T01:35:43.743Z,12.29
2022-09-26T01:36:43.762Z,12.26
2022-09-26T01:37:43.711Z,12.21
2022-09-26T01:38:43.734Z,12.22
2022-09-26T01:39:43.696Z,12.26
2022-09-26T01:40:43.875Z,12.29
2022-09-26T01:41:43.672Z,12.26
2022-09-26T01:42:43.682Z,12.25
2022-09-26T01:43:43.654Z,12.23
2022-09-26T01:44:43.635Z,12.13
2022-09-26T01:45:43.771Z,12.12
2022-09-26T01:46:43.631Z,12.11
2022-09-26T01:47:43.607Z,12.22
2022-09-26T01:48:43.652Z,12.13
2022-09-26T01:49:43.588Z,12.16
2022-09-26T01:50:43.577Z,12.16
2022-09-26T01:51:43.562Z,12.18
2022-09-26T01:52:43.554Z,12.11
2022-09-26T01:53:43.561Z,12.11
2022-09-26T01:54:43.590Z,12.12
2022-09-26T01:55:43.539Z,12.13
2022-09-26T01:56:43.513Z,12.13
2022-09-26T01:57:43.499Z,12.13
2022-09-26T01:58:43.519Z,12.12
2022-09-26T01:59:43.491Z,12.21
2022-09-26T02:00:43.547Z,12.29
2022-09-26T02:01:43.611Z,12.16
2022-09-26T02:02:43.505Z,12.30
2022-09-26T02:03:43.435Z,12.26
2022-09-26T02:04:43.439Z,12.30
2022-09-26T02:05:43.418Z,12.30
2022-09-26T02:06:43.443Z,12.30
2022-09-26T02:07:43.386Z,12.29
2022-09-26T02:08:43.380Z,12.33
2022-09-26T02:09:43.387Z,12.26
2022-09-26T02:10:43.357Z,12.25
2022-09-26T02:11:43.345Z,12.26
2022-09-26T02:12:43.363Z,12.16
2022-09-26T02:13:43.333Z,12.25
2022-09-26T02:14:43.336Z,12.18
2022-09-26T02:15:43.304Z,12.18
2022-09-26T02:16:43.374Z,12.23
2022-09-26T02:17:43.384Z,12.25
2022-09-26T02:18:43.303Z,12.33
2022-09-26T02:19:43.276Z,12.26
2022-09-26T02:20:43.249Z,12.30
2022-09-26T02:21:43.239Z,12.23
2022-09-26T02:22:43.256Z,12.15
2022-09-26T02:23:43.216Z,12.13
2022-09-26T02:24:43.246Z,12.16
2022-09-26T02:25:43.195Z,12.21
2022-09-26T02:26:43.178Z,12.16
2022-09-26T02:27:43.226Z,12.25
2022-09-26T02:28:43.184Z,12.31
2022-09-26T02:29:43.197Z,12.36
2022-09-26T02:30:43.171Z,12.26
2022-09-26T02:31:43.228Z,12.37
2022-09-26T02:32:43.118Z,12.26
2022-09-26T02:33:43.122Z,12.33
2022-09-26T02:34:43.109Z,12.36
2022-09-26T02:35:43.149Z,12.29
2022-09-26T02:36:43.073Z,12.37
2022-09-26T02:37:43.069Z,12.36
2022-09-26T02:38:43.065Z,12.37
2022-09-26T02:39:43.061Z,12.40
2022-09-26T02:40:43.146Z,12.40
2022-09-26T02:41:43.057Z,12.36
2022-09-26T02:42:43.031Z,12.41
2022-09-26T02:43:42.999Z,12.34
2022-09-26T02:44:42.998Z,12.36
2022-09-26T02:45:43.043Z,12.41
2022-09-26T02:46:42.972Z,12.40
2022-09-26T02:47:43.010Z,12.41
2022-09-26T02:48:42.938Z,12.40
2022-09-26T02:49:42.964Z,12.37
2022-09-26T02:50:42.925Z,12.43
2022-09-26T02:51:42.917Z,12.37
2022-09-26T02:52:42.907Z,12.41
2022-09-26T02:53:42.958Z,12.38
2022-09-26T02:54:42.920Z,12.36
2022-09-26T02:55:42.883Z,12.41
2022-09-26T02:56:42.879Z,12.46
2022-09-26T02:57:42.841Z,12.38
2022-09-26T02:58:42.845Z,12.38
2022-09-26T02:59:42.882Z,12.48
2022-09-26T03:00:42.942Z,12.40
2022-09-26T03:01:42.937Z,12.41
2022-09-26T03:02:42.784Z,12.41
2022-09-26T03:03:42.863Z,12.55
2022-09-26T03:04:42.850Z,12.38
2022-09-26T03:05:42.800Z,12.40
2022-09-26T03:06:42.744Z,12.26
2022-09-26T03:07:42.735Z,12.37
2022-09-26T03:08:42.722Z,12.38
2022-09-26T03:09:42.728Z,12.26
2022-09-26T03:10:42.722Z,12.40
2022-09-26T03:11:42.750Z,12.38
2022-09-26T03:12:42.695Z,12.30
2022-09-26T03:13:42.670Z,12.26
2022-09-26T03:14:42.675Z,12.30
2022-09-26T03:15:42.641Z,12.23
2022-09-26T03:16:42.783Z,12.23
2022-09-26T03:17:42.660Z,12.25
2022-09-26T03:18:42.630Z,12.25
2022-09-26T03:19:42.633Z,12.25
2022-09-26T03:20:42.614Z,12.11
2022-09-26T03:21:42.607Z,12.18
2022-09-26T03:22:42.577Z,12.08
2022-09-26T03:23:42.661Z,12.03
2022-09-26T03:24:42.569Z,12.04
2022-09-26T03:25:42.537Z,11.93
2022-09-26T03:26:42.529Z,11.88
2022-09-26T03:27:42.519Z,11.90
2022-09-26T03:28:42.509Z,11.72
2022-09-26T03:29:42.565Z,11.72
2022-09-26T03:30:42.487Z,11.67
2022-09-26T03:31:42.559Z,11.77
2022-09-26T03:32:42.470Z,11.70
2022-09-26T03:33:42.455Z,11.69
2022-09-26T03:34:42.479Z,11.59
2022-09-26T03:35:42.474Z,11.62
2022-09-26T03:36:42.417Z,11.74
2022-09-26T03:37:42.429Z,11.77
2022-09-26T03:38:42.397Z,11.69
2022-09-26T03:39:42.399Z,11.69
2022-09-26T03:40:42.454Z,11.81
2022-09-26T03:41:42.388Z,11.75
2022-09-26T03:42:42.361Z,11.70
2022-09-26T03:43:42.339Z,11.66
2022-09-26T03:44:42.348Z,11.60
2022-09-26T03:45:42.366Z,11.62
2022-09-26T03:46:42.312Z,11.53
2022-09-26T03:47:42.336Z,11.59
2022-09-26T03:48:42.287Z,11.57
2022-09-26T03:49:43.311Z,11.51
2022-09-26T03:50:42.287Z,11.60
2022-09-26T03:51:42.268Z,11.57
2022-09-26T03:52:42.241Z,11.53
2022-09-26T03:53:42.302Z,11.49
2022-09-26T03:54:42.241Z,11.42
2022-09-26T03:55:42.209Z,11.46
2022-09-26T03:56:42.198Z,11.42
2022-09-26T03:57:42.193Z,11.45
2022-09-26T03:58:42.195Z,11.44
2022-09-26T03:59:42.193Z,11.30
2022-09-26T04:00:42.214Z,11.31
2022-09-26T04:01:42.152Z,11.30
2022-09-26T04:02:42.209Z,11.21
2022-09-26T04:03:46.451Z,11.12
2022-09-26T04:04:43.196Z,11.12
2022-09-26T04:05:42.116Z,11.13
2022-09-26T04:06:42.116Z,11.02
2022-09-26T04:07:42.089Z,11.03
2022-09-26T04:08:42.110Z,10.98
2022-09-26T04:09:42.104Z,10.81
2022-09-26T04:10:42.048Z,10.80
2022-09-26T04:11:42.050Z,10.81
2022-09-26T04:12:42.057Z,10.73
2022-09-26T04:13:57.139Z,10.63
2022-09-26T04:14:43.020Z,10.73
2022-09-26T04:15:42.046Z,10.65
2022-09-26T04:16:42.109Z,10.72
2022-09-26T04:17:41.984Z,10.58
2022-09-26T04:18:42.009Z,10.60
2022-09-26T04:19:42.009Z,10.54
2022-09-26T04:20:41.933Z,10.62
2022-09-26T04:21:41.945Z,10.62
2022-09-26T04:22:41.957Z,10.58
2022-09-26T04:23:41.943Z,10.70
2022-09-26T04:24:41.916Z,10.65
2022-09-26T04:25:41.947Z,10.60
2022-09-26T04:26:41.912Z,10.60
2022-09-26T04:27:41.878Z,10.70
2022-09-26T04:28:41.869Z,10.65
2022-09-26T04:29:41.870Z,10.68
2022-09-26T04:30:41.837Z,10.62
2022-09-26T04:31:41.952Z,10.68
2022-09-26T04:32:41.837Z,10.66
2022-09-26T04:33:41.814Z,10.63
2022-09-26T04:34:41.847Z,10.70
2022-09-26T04:35:41.788Z,10.72
2022-09-26T04:36:41.769Z,10.66
2022-09-26T04:37:41.759Z,10.66
2022-09-26T04:38:41.758Z,10.69
2022-09-26T04:39:41.767Z,10.63
2022-09-26T04:40:42.941Z,10.68
2022-09-26T04:41:41.779Z,10.60
2022-09-26T04:42:41.731Z,10.66
2022-09-26T04:43:41.704Z,10.60
2022-09-26T04:44:41.700Z,10.52
2022-09-26T04:45:41.702Z,10.63
2022-09-26T04:46:41.660Z,10.52
2022-09-26T04:47:41.688Z,10.51
2022-09-26T04:48:41.651Z,10.63
2022-09-26T04:49:41.653Z,10.51
2022-09-26T04:50:41.629Z,10.60
2022-09-26T04:51:41.604Z,10.54
2022-09-26T04:52:41.595Z,10.52
2022-09-26T04:53:41.655Z,10.51
2022-09-26T04:54:41.618Z,10.60
2022-09-26T04:55:41.558Z,10.60
2022-09-26T04:56:41.552Z,10.55
2022-09-26T04:57:41.561Z,10.62
2022-09-26T04:58:41.544Z,10.57
2022-09-26T04:59:41.594Z,10.55
2022-09-26T05:00:41.594Z,10.52
2022-09-26T05:01:41.569Z,10.51
2022-09-26T05:02:41.541Z,10.47
2022-09-26T05:03:41.491Z,10.54
2022-09-26T05:04:41.485Z,10.52
2022-09-26T05:05:41.448Z,10.60
2022-09-26T05:06:41.516Z,10.49
2022-09-26T05:07:41.463Z,10.47
2022-09-26T05:08:41.428Z,10.46
2022-09-26T05:09:41.438Z,10.51
2022-09-26T05:10:41.387Z,10.51
2022-09-26T05:11:41.429Z,10.51
2022-09-26T05:12:41.470Z,10.51
2022-09-26T05:13:41.380Z,10.57
2022-09-26T05:14:41.419Z,10.54
2022-09-26T05:15:41.404Z,10.49
2022-09-26T05:16:41.383Z,10.51
2022-09-26T05:17:41.320Z,10.52
2022-09-26T05:18:41.370Z,10.55
2022-09-26T05:19:41.337Z,10.54
2022-09-26T05:20:41.315Z,10.49
2022-09-26T05:21:41.291Z,10.55
2022-09-26T05:22:41.273Z,10.52
2022-09-26T05:23:44.733Z,10.54
2022-09-26T05:24:41.277Z,10.46
2022-09-26T05:25:41.347Z,10.57
2022-09-26T05:26:41.234Z,10.52
2022-09-26T05:27:41.215Z,10.47
2022-09-26T05:28:41.218Z,10.57
2022-09-26T05:29:41.289Z,10.60
2022-09-26T05:30:41.179Z,10.54
2022-09-26T05:31:41.323Z,10.65
2022-09-26T05:32:41.183Z,10.63
2022-09-26T05:33:41.166Z,10.58
2022-09-26T05:34:41.205Z,10.58
2022-09-26T05:35:41.158Z,10.55
2022-09-26T05:36:41.108Z,10.65
2022-09-26T05:37:41.183Z,10.55
2022-09-26T05:38:41.107Z,10.60
2022-09-26T05:39:42.612Z,10.58
2022-09-26T05:40:41.161Z,10.60
2022-09-26T05:41:41.057Z,10.62
2022-09-26T05:42:41.060Z,10.60
2022-09-26T05:43:41.086Z,10.58
2022-09-26T05:44:41.045Z,10.60
2022-09-26T05:45:41.031Z,10.72
2022-09-26T05:46:41.087Z,10.63
2022-09-26T05:47:41.051Z,10.66
2022-09-26T05:48:40.980Z,10.68
2022-09-26T05:49:41.038Z,10.69
2022-09-26T05:50:43.558Z,10.75
2022-09-26T05:51:41.020Z,10.72
2022-09-26T05:52:40.935Z,10.73
2022-09-26T05:53:40.922Z,10.66
2022-09-26T05:54:40.940Z,10.72
2022-09-26T05:55:40.902Z,10.76
2022-09-26T05:56:40.932Z,10.75
2022-09-26T05:57:40.963Z,10.76
2022-09-26T05:58:40.881Z,10.73
2022-09-26T05:59:40.915Z,10.81
2022-09-26T06:00:40.936Z,10.88
2022-09-26T06:01:40.913Z,10.84
2022-09-26T06:02:40.870Z,10.90
2022-09-26T06:03:40.862Z,10.81
2022-09-26T06:04:40.883Z,10.87
2022-09-26T06:05:40.812Z,10.90
2022-09-26T06:06:40.775Z,10.87
2022-09-26T06:07:40.796Z,10.91
2022-09-26T06:08:40.813Z,10.88
2022-09-26T06:09:40.803Z,10.94
2022-09-26T06:10:40.773Z,10.98
2022-09-26T06:11:40.764Z,10.99
2022-09-26T06:12:40.720Z,11.05
2022-09-26T06:13:40.725Z,11.11
2022-09-26T06:14:40.701Z,11.21
2022-09-26T06:15:40.703Z,11.17
2022-09-26T06:16:40.961Z,11.21
2022-09-26T06:17:40.707Z,11.11
2022-09-26T06:18:40.661Z,11.30
2022-09-26T06:19:40.674Z,11.30
2022-09-26T06:20:40.679Z,11.46
2022-09-26T06:21:40.619Z,11.62
2022-09-26T06:22:40.604Z,11.54
2022-09-26T06:23:40.618Z,11.66
2022-09-26T06:24:40.731Z,11.82
2022-09-26T06:25:40.595Z,11.87
2022-09-26T06:26:40.562Z,12.11
2022-09-26T06:27:40.553Z,12.11
2022-09-26T06:28:40.535Z,12.30
2022-09-26T06:29:40.632Z,12.49
2022-09-26T06:30:40.574Z,12.85
2022-09-26T06:31:40.613Z,12.88
2022-09-26T06:32:40.514Z,12.99
2022-09-26T06:33:40.528Z,13.27
2022-09-26T06:34:40.504Z,13.22
2022-09-26T06:35:40.474Z,13.38
2022-09-26T06:36:40.474Z,13.57
2022-09-26T06:37:40.445Z,14.01
2022-09-26T06:38:40.438Z,14.20
2022-09-26T06:39:40.435Z,14.48
2022-09-26T06:40:40.530Z,14.66
2022-09-26T06:41:40.399Z,14.71
2022-09-26T06:42:40.415Z,14.91
2022-09-26T06:43:40.402Z,15.16
2022-09-26T06:44:40.408Z,15.25
2022-09-26T06:45:40.411Z,15.64
2022-09-26T06:46:40.439Z,15.91
2022-09-26T06:47:40.389Z,15.67
2022-09-26T06:48:40.427Z,15.92
2022-09-26T06:49:40.399Z,16.16
2022-09-26T06:50:40.333Z,16.29
2022-09-26T06:51:40.301Z,16.59
2022-09-26T06:52:40.294Z,16.34
2022-09-26T06:53:40.287Z,16.45
2022-09-26T06:54:40.320Z,16.88
2022-09-26T06:55:40.281Z,17.03
2022-09-26T06:56:40.266Z,17.15
2022-09-26T06:57:40.221Z,17.09
2022-09-26T06:58:40.236Z,17.18
2022-09-26T06:59:40.214Z,16.99
2022-09-26T07:00:40.300Z,16.85
2022-09-26T07:01:40.454Z,16.87
2022-09-26T07:02:40.165Z,16.91
2022-09-26T07:03:45.090Z,16.87
2022-09-26T07:04:41.142Z,16.98
2022-09-26T07:05:40.205Z,17.06
2022-09-26T07:06:40.163Z,17.12
2022-09-26T07:07:40.113Z,17.28
2022-09-26T07:09:04.708Z,17.39
2022-09-26T07:09:41.105Z,17.39
2022-09-26T07:10:40.091Z,17.83
2022-09-26T07:12:09.978Z,17.98
2022-09-26T07:12:41.140Z,17.96
2022-09-26T07:13:40.050Z,18.20
2022-09-26T07:14:40.036Z,17.66
2022-09-26T07:15:40.028Z,17.65
2022-09-26T07:16:40.131Z,17.99
2022-09-26T07:17:39.999Z,18.34
2022-09-26T07:18:40.068Z,18.56
2022-09-26T07:19:40.007Z,18.87
2022-09-26T07:20:40.002Z,19.12
2022-09-26T07:21:39.975Z,19.15
2022-09-26T07:22:39.955Z,19.17
2022-09-26T07:23:39.984Z,18.87
2022-09-26T07:24:39.940Z,18.31
2022-09-26T07:25:39.924Z,18.07
2022-09-26T07:26:39.956Z,18.26
2022-09-26T07:27:39.945Z,18.05
2022-09-26T07:28:39.884Z,18.19
2022-09-26T07:29:39.930Z,18.72
2022-09-26T07:30:39.886Z,19.07
2022-09-26T07:31:39.923Z,19.01
2022-09-26T07:32:39.876Z,19.07
2022-09-26T07:33:39.824Z,19.02
2022-09-26T07:34:39.834Z,19.15
2022-09-26T07:35:39.843Z,18.59
2022-09-26T07:36:39.799Z,18.87
2022-09-26T07:37:39.804Z,18.69
2022-09-26T07:38:39.782Z,18.29
2022-09-26T07:39:39.875Z,17.99
2022-09-26T07:40:39.809Z,18.20
2022-09-26T07:41:39.767Z,18.46
2022-09-26T07:42:39.737Z,18.11
2022-09-26T07:44:19.362Z,17.65
2022-09-26T07:45:17.512Z,17.32
2022-09-26T07:45:40.709Z,17.00
2022-09-26T07:46:39.766Z,16.92
2022-09-26T07:47:39.691Z,16.60
2022-09-26T07:48:39.662Z,16.75
2022-09-26T07:49:39.703Z,16.48
2022-09-26T07:50:39.634Z,16.54
2022-09-26T07:51:39.633Z,16.51
2022-09-26T07:52:39.618Z,16.51
2022-09-26T07:53:39.621Z,16.70
2022-09-26T07:54:39.646Z,16.51
2022-09-26T07:55:39.624Z,16.40
2022-09-26T07:56:39.569Z,16.42
2022-09-26T07:57:39.575Z,16.59
2022-09-26T07:58:39.547Z,16.69
2022-09-26T07:59:39.572Z,16.75
2022-09-26T08:00:39.528Z,16.88
2022-09-26T08:01:39.561Z,16.96
2022-09-26T08:02:39.605Z,16.85
2022-09-26T08:03:39.496Z,17.03
2022-09-26T08:04:39.645Z,17.38
2022-09-26T08:05:39.493Z,17.79
2022-09-26T08:06:39.481Z,17.98
2022-09-26T08:07:39.491Z,17.81
2022-09-26T08:08:39.488Z,17.63
2022-09-26T08:09:39.501Z,17.73
2022-09-26T08:10:39.477Z,18.13
2022-09-26T08:11:39.432Z,18.47
2022-09-26T08:12:39.423Z,18.75
2022-09-26T08:13:39.394Z,18.83
2022-09-26T08:14:39.387Z,18.78
2022-09-26T08:15:39.432Z,19.01
2022-09-26T08:16:39.423Z,18.82
2022-09-26T08:17:39.351Z,18.87
2022-09-26T08:18:39.367Z,18.84
2022-09-26T08:19:39.411Z,18.82
2022-09-26T08:20:39.339Z,18.79
2022-09-26T08:21:39.312Z,18.56
2022-09-26T08:22:39.312Z,18.66
2022-09-26T08:23:39.283Z,18.64
2022-09-26T08:24:39.283Z,18.56
2022-09-26T08:25:39.361Z,18.82
2022-09-26T08:26:43.866Z,19.01
2022-09-26T08:27:40.240Z,19.15
2022-09-26T08:28:39.242Z,18.96
2022-09-26T08:29:39.246Z,19.07
2022-09-26T08:30:39.208Z,18.69
2022-09-26T08:31:39.241Z,18.94
2022-09-26T08:32:39.172Z,18.99
2022-09-26T08:33:39.178Z,18.90
2022-09-26T08:34:39.221Z,18.93
2022-09-26T08:35:39.155Z,18.82
2022-09-26T08:36:39.157Z,19.01
2022-09-26T08:37:39.272Z,19.10
2022-09-26T08:38:39.114Z,19.16
2022-09-26T08:39:39.132Z,19.12
2022-09-26T08:40:39.203Z,18.56
2022-09-26T08:41:39.177Z,17.99
2022-09-26T08:42:39.063Z,17.73
2022-09-26T08:43:39.132Z,18.05
2022-09-26T08:44:39.127Z,18.72
2022-09-26T08:45:39.037Z,19.17
2022-09-26T08:46:39.125Z,19.45
2022-09-26T08:47:39.125Z,19.57
2022-09-26T08:48:39.035Z,19.50
2022-09-26T08:49:39.040Z,19.40
2022-09-26T08:50:38.974Z,19.47
2022-09-26T08:51:38.961Z,19.38
2022-09-26T08:52:39.005Z,19.34
2022-09-26T08:53:38.962Z,19.65
2022-09-26T08:54:38.996Z,19.79
2022-09-26T08:55:39.047Z,19.68
2022-09-26T08:56:39.017Z,19.61
2022-09-26T08:57:38.924Z,19.45
2022-09-26T08:58:38.937Z,19.30
2022-09-26T08:59:38.878Z,19.32
2022-09-26T09:00:38.866Z,19.16
2022-09-26T09:01:39.044Z,19.21
2022-09-26T09:02:39.050Z,19.06
2022-09-26T09:03:38.863Z,19.07
2022-09-26T09:04:38.861Z,19.12
2022-09-26T09:05:38.826Z,18.91
2022-09-26T09:06:38.868Z,18.68
2022-09-26T09:07:38.805Z,18.68
2022-09-26T09:08:38.844Z,18.29
2022-09-26T09:09:38.833Z,17.99
2022-09-26T09:10:38.805Z,17.62
2022-09-26T09:11:38.748Z,17.33
2022-09-26T09:12:38.938Z,17.07
2022-09-26T09:13:38.811Z,17.00
2022-09-26T09:14:38.821Z,16.98
2022-09-26T09:15:38.771Z,16.90
2022-09-26T09:16:38.723Z,16.96
2022-09-26T09:17:38.705Z,16.92
2022-09-26T09:18:38.687Z,16.95
2022-09-26T09:19:38.690Z,16.96
2022-09-26T09:20:38.673Z,17.07
2022-09-26T09:21:41.843Z,17.15
2022-09-26T09:22:38.649Z,17.22
2022-09-26T09:23:38.725Z,17.30
2022-09-26T09:24:38.616Z,17.51
2022-09-26T09:25:38.758Z,17.66
2022-09-26T09:27:55.237Z,17.45
2022-09-26T09:28:39.629Z,17.76
2022-09-26T09:29:38.644Z,17.84
2022-09-26T09:30:38.556Z,18.39
2022-09-26T09:31:38.611Z,18.50
2022-09-26T09:32:38.601Z,18.71
2022-09-26T09:33:38.582Z,19.01
2022-09-26T09:34:38.637Z,19.45
2022-09-26T09:35:38.503Z,19.92
2022-09-26T09:36:38.499Z,19.92
2022-09-26T09:37:38.502Z,19.92
2022-09-26T09:38:38.480Z,19.57
2022-09-26T09:39:38.440Z,19.61
2022-09-26T09:40:38.700Z,19.50
2022-09-26T09:41:38.440Z,19.28
2022-09-26T09:42:38.491Z,19.12
2022-09-26T09:43:38.973Z,19.09
2022-09-26T09:44:40.964Z,18.68
2022-09-26T09:45:38.393Z,18.60
2022-09-26T09:46:38.445Z,18.25
2022-09-26T09:47:38.399Z,17.86
2022-09-26T09:48:38.420Z,17.70
2022-09-26T09:49:38.360Z,17.60
2022-09-26T09:50:38.400Z,17.36
2022-09-26T09:51:39.427Z,17.27
2022-09-26T09:52:38.323Z,17.28
2022-09-26T09:53:38.315Z,17.18
2022-09-26T09:54:38.318Z,17.07
2022-09-26T09:55:38.282Z,17.09
2022-09-26T09:56:38.316Z,17.18
2022-09-26T09:57:38.291Z,17.20
2022-09-26T09:58:38.265Z,17.24
2022-09-26T09:59:38.218Z,17.14
2022-09-26T10:00:38.495Z,16.99
2022-09-26T10:01:38.253Z,17.03
2022-09-26T10:02:38.276Z,17.28
2022-09-26T10:03:38.208Z,17.32
2022-09-26T10:04:38.191Z,17.43
2022-09-26T10:05:38.148Z,17.53
2022-09-26T10:06:44.140Z,17.77
2022-09-26T10:07:39.141Z,17.86
2022-09-26T10:08:38.248Z,17.92
2022-09-26T10:09:40.007Z,17.86
2022-09-26T10:10:38.120Z,17.60
2022-09-26T10:11:38.090Z,17.57
2022-09-26T10:12:38.125Z,17.66
2022-09-26T10:13:38.057Z,17.71
2022-09-26T10:14:38.076Z,17.81
2022-09-26T10:15:38.129Z,17.76
2022-09-26T10:16:38.029Z,17.60
2022-09-26T10:17:38.044Z,17.51
2022-09-26T10:18:38.190Z,17.46
2022-09-26T10:19:38.006Z,17.30
2022-09-26T10:20:38.012Z,17.30
2022-09-26T10:21:37.987Z,17.06
2022-09-26T10:22:37.963Z,17.03
2022-09-26T10:23:37.974Z,17.00
2022-09-26T10:24:37.999Z,16.96
2022-09-26T10:25:37.933Z,16.78
2022-09-26T10:26:37.923Z,16.62
2022-09-26T10:27:38.072Z,16.66
2022-09-26T10:28:38.136Z,16.52
2022-09-26T10:29:37.958Z,16.59
2022-09-26T10:30:37.901Z,16.60
2022-09-26T10:31:42.283Z,16.54
2022-09-26T10:32:38.866Z,16.65
2022-09-26T10:33:37.905Z,16.72
2022-09-26T10:34:37.835Z,16.92
2022-09-26T10:35:37.850Z,17.25
2022-09-26T10:36:37.917Z,17.30
2022-09-26T10:37:38.230Z,17.49
2022-09-26T10:38:37.835Z,17.42
2022-09-26T10:39:37.853Z,17.53
2022-09-26T10:40:37.854Z,17.54
2022-09-26T10:41:37.766Z,17.38
2022-09-26T10:42:37.744Z,17.20
2022-09-26T10:43:37.787Z,17.14
2022-09-26T10:44:37.725Z,17.05
2022-09-26T10:45:37.897Z,17.03
2022-09-26T10:46:38.253Z,17.02
2022-09-26T10:47:37.906Z,16.84
2022-09-26T10:48:38.004Z,16.84
2022-09-26T10:49:37.689Z,16.85
2022-09-26T10:50:37.655Z,16.69
2022-09-26T10:51:37.653Z,16.78
2022-09-26T10:52:37.635Z,16.77
2022-09-26T10:53:38.014Z,16.82
2022-09-26T10:54:37.681Z,16.75
2022-09-26T10:55:37.803Z,16.65
2022-09-26T10:56:38.311Z,16.48
2022-09-26T10:57:37.822Z,16.50
2022-09-26T10:58:37.620Z,16.42
2022-09-26T10:59:37.566Z,16.36
2022-09-26T11:00:37.601Z,16.50
2022-09-26T11:01:37.612Z,16.73
2022-09-26T11:02:37.689Z,16.65
2022-09-26T11:03:37.601Z,16.75
2022-09-26T11:04:37.633Z,16.70
2022-09-26T11:05:37.533Z,16.80
2022-09-26T11:06:37.504Z,16.73
2022-09-26T11:07:37.469Z,16.50
2022-09-26T11:08:37.470Z,16.30
2022-09-26T11:09:37.566Z,16.11
2022-09-26T11:10:37.446Z,16.08
2022-09-26T11:11:37.655Z,15.99
2022-09-26T11:12:37.486Z,16.08
2022-09-26T11:13:37.458Z,15.91
2022-09-26T11:14:37.502Z,15.86
2022-09-26T11:15:37.464Z,15.86
2022-09-26T11:16:37.536Z,15.84
2022-09-26T11:17:37.407Z,15.74
2022-09-26T11:18:37.379Z,15.67
2022-09-26T11:19:37.380Z,15.59
2022-09-26T11:20:37.401Z,15.46
2022-09-26T11:21:37.432Z,15.51
2022-09-26T11:22:37.966Z,15.59
2022-09-26T11:23:37.357Z,15.60
2022-09-26T11:24:37.348Z,15.51
2022-09-26T11:25:37.315Z,15.49
2022-09-26T11:26:37.314Z,15.51
2022-09-26T11:27:37.252Z,15.40
2022-09-26T11:28:37.233Z,15.41
2022-09-26T11:29:37.519Z,15.41
2022-09-26T11:30:37.231Z,15.41
2022-09-26T11:31:37.541Z,15.37
2022-09-26T11:32:37.535Z,15.37
2022-09-26T11:33:37.179Z,15.40
2022-09-26T11:34:37.221Z,15.31
2022-09-26T11:35:37.202Z,15.33
2022-09-26T11:36:37.148Z,15.28
2022-09-26T11:37:37.281Z,15.31
2022-09-26T11:38:37.254Z,15.23
2022-09-26T11:39:37.198Z,15.22
2022-09-26T11:40:37.279Z,15.30
2022-09-26T11:41:37.111Z,15.22
2022-09-26T11:42:37.090Z,15.27
2022-09-26T11:43:37.095Z,15.30
2022-09-26T11:44:37.104Z,15.28
2022-09-26T11:45:40.830Z,15.44
2022-09-26T11:46:38.212Z,15.46
2022-09-26T11:47:37.152Z,15.46
2022-09-26T11:48:37.061Z,15.52
2022-09-26T11:49:37.092Z,15.53
2022-09-26T11:50:37.032Z,15.52
2022-09-26T11:51:37.022Z,15.62
2022-09-26T11:52:36.992Z,15.62
2022-09-26T11:53:37.005Z,15.67
2022-09-26T11:54:36.986Z,15.86
2022-09-26T11:55:37.089Z,15.92
2022-09-26T11:56:37.005Z,15.86
2022-09-26T11:57:37.901Z,15.92
2022-09-26T11:58:37.088Z,15.92
2022-09-26T11:59:37.078Z,15.78
2022-09-26T12:00:36.893Z,15.88
2022-09-26T12:01:36.900Z,15.81
2022-09-26T12:02:36.992Z,15.91
2022-09-26T12:03:37.049Z,15.71
2022-09-26T12:04:36.886Z,15.85
2022-09-26T12:05:37.162Z,16.03
2022-09-26T12:06:37.115Z,15.99
2022-09-26T12:07:37.163Z,16.26
2022-09-26T12:08:37.330Z,16.33
2022-09-26T12:09:36.859Z,16.52
2022-09-26T12:10:36.854Z,16.59
2022-09-26T12:11:36.782Z,16.51
2022-09-26T12:12:40.453Z,16.47
2022-09-26T12:13:36.763Z,16.27
2022-09-26T12:14:36.938Z,16.32
2022-09-26T12:15:36.887Z,16.30
2022-09-26T12:16:37.535Z,16.36
2022-09-26T12:17:36.964Z,16.45
2022-09-26T12:18:36.711Z,16.48
2022-09-26T12:19:36.799Z,16.59
2022-09-26T12:20:36.687Z,16.60
2022-09-26T12:21:36.689Z,16.70
2022-09-26T12:22:36.663Z,16.80
2022-09-26T12:23:36.949Z,16.78
2022-09-26T12:24:36.744Z,16.70
2022-09-26T12:25:37.456Z,16.70
2022-09-26T12:26:36.626Z,16.82
2022-09-26T12:27:36.702Z,16.85
2022-09-26T12:28:36.604Z,17.05
2022-09-26T12:29:36.645Z,17.09
2022-09-26T12:30:36.582Z,17.17
2022-09-26T12:31:36.661Z,17.36
2022-09-26T12:32:36.653Z,17.38
2022-09-26T12:33:36.644Z,17.62
2022-09-26T12:34:36.579Z,17.83
2022-09-26T12:35:36.549Z,17.98
2022-09-26T12:36:36.538Z,18.21
2022-09-26T12:37:36.498Z,18.32
2022-09-26T12:38:36.523Z,18.41
2022-09-26T12:39:36.491Z,18.41
2022-09-26T12:40:36.944Z,18.31
2022-09-26T12:41:36.631Z,18.10
2022-09-26T12:42:36.804Z,17.87
2022-09-26T12:43:36.510Z,17.46
2022-09-26T12:44:36.453Z,17.32
2022-09-26T12:45:36.425Z,17.10
2022-09-26T12:46:36.447Z,16.84
2022-09-26T12:47:36.395Z,16.75
2022-09-26T12:48:36.532Z,16.77
2022-09-26T12:49:36.922Z,16.75
2022-09-26T12:50:36.466Z,16.65
2022-09-26T12:51:36.451Z,16.48
2022-09-26T12:52:37.093Z,16.23
2022-09-26T12:53:36.334Z,16.14